^^
Station Historical Data
 
Daily Summary for April 30, 2017 Units:  English    Metric   Both
« Previous Day
Next Day »
Daily Weekly Monthly Yearly Custom
  Current: High: Low: Average:
Temperature: 78.8 °F 87.6 °F 72.7 °F 79.5 °F
Dew Point: 71.0 °F 71.9 °F 68.6 °F 70.7 °F
Humidity: 77% 92% 56% 76%
Wind Speed: 3.0mph 10.0mph 0.0mph 3.8mph
Wind Gust: 15.0mph 24.0mph - -
WindEast - - ESE
Pressure: 30.06 in 30.11 in 30.02 in -
Precipitation: 0.15 in      
Historical Graphs
 
 
Tabular Data for April 30, 2017
Time Temperature Dew Point Pressure Wind Wind Speed Wind Gust Humidity Rainfall Rate (Hourly) solar Conditions
00:09 74.9 °F 70.8 °F 30.10 in East 3.0 mph 9.0 mph 87% 0.00 in 0.0 W/m2 CLR
00:19 75.0 °F 70.9 °F 30.10 in ESE 6.0 mph 12.0 mph 87% 0.00 in 0.0 W/m2 CLR
00:29 75.1 °F 70.9 °F 30.10 in ESE 3.0 mph 12.0 mph 87% 0.00 in 0.0 W/m2 CLR
00:39 75.0 °F 70.9 °F 30.10 in ESE 3.0 mph 9.0 mph 87% 0.00 in 0.0 W/m2 CLR
00:49 74.9 °F 70.8 °F 30.10 in East 3.0 mph 8.0 mph 87% 0.00 in 0.0 W/m2 CLR
00:59 74.8 °F 70.6 °F 30.10 in East 3.0 mph 7.0 mph 87% 0.00 in 0.0 W/m2 CLR
01:09 74.6 °F 70.8 °F 30.09 in East 3.0 mph 5.0 mph 88% 0.00 in 0.0 W/m2 FEW
01:19 74.5 °F 70.7 °F 30.09 in East 1.0 mph 7.0 mph 88% 0.00 in 0.0 W/m2 FEW
01:29 74.3 °F 70.5 °F 30.08 in East 3.0 mph 6.0 mph 88% 0.00 in 0.0 W/m2 FEW
01:39 74.3 °F 70.8 °F 30.08 in East 2.0 mph 5.0 mph 89% 0.00 in 0.0 W/m2 FEW
01:49 74.4 °F 70.9 °F 30.08 in ESE 3.0 mph 9.0 mph 89% 0.00 in 0.0 W/m2 FEW
01:59 74.5 °F 70.7 °F 30.08 in East 2.0 mph 6.0 mph 88% 0.00 in 0.0 W/m2 FEW
02:09 74.5 °F 71.0 °F 30.08 in East 3.0 mph 6.0 mph 89% 0.00 in 0.0 W/m2 SCT
02:19 74.7 °F 70.9 °F 30.08 in East 2.0 mph 24.0 mph 88% 0.00 in 0.0 W/m2 SCT
02:29 74.9 °F 71.1 °F 30.08 in ESE 3.0 mph 7.0 mph 88% 0.00 in 0.0 W/m2 SCT
02:39 74.9 °F 71.1 °F 30.07 in ESE 2.0 mph 5.0 mph 88% 0.00 in 0.0 W/m2 SCT
02:44 74.9 °F 71.1 °F 30.07 in ESE 1.0 mph 5.0 mph 88% 0.00 in 0.0 W/m2 SCT
02:49 74.9 °F 71.1 °F 30.07 in Calm   5.0 mph 88% 0.00 in 0.0 W/m2 SCT
02:59 74.7 °F 71.2 °F 30.07 in ESE 1.0 mph 2.0 mph 89% 0.00 in 0.0 W/m2 SCT
03:09 74.7 °F 71.2 °F 30.07 in ESE 1.0 mph 5.0 mph 89% 0.00 in 0.0 W/m2 FEW
03:19 74.8 °F 71.3 °F 30.07 in Calm   2.0 mph 89% 0.00 in 0.0 W/m2 FEW
03:29 74.8 °F 71.3 °F 30.07 in ENE 2.0 mph 4.0 mph 89% 0.00 in 0.0 W/m2 FEW
03:39 74.8 °F 71.3 °F 30.07 in ENE 1.0 mph 2.0 mph 89% 0.00 in 0.0 W/m2 FEW
03:44 74.8 °F 71.3 °F 30.07 in ENE 1.0 mph 3.0 mph 89% 0.00 in 0.0 W/m2 FEW
03:49 74.7 °F 71.3 °F 30.07 in East 1.0 mph 5.0 mph 89% 0.00 in 0.0 W/m2 FEW
03:59 74.9 °F 71.4 °F 30.07 in East 2.0 mph 4.0 mph 89% 0.00 in 0.0 W/m2 FEW
04:09 74.9 °F 71.4 °F 30.07 in East 2.0 mph 7.0 mph 89% 0.00 in 0.0 W/m2 OVC
04:19 74.9 °F 70.8 °F 30.07 in East 3.0 mph 6.0 mph 87% 0.00 in 0.0 W/m2 OVC
04:29 74.8 °F 70.3 °F 30.08 in ESE 1.0 mph 5.0 mph 86% 0.00 in 0.0 W/m2 OVC
04:39 74.7 °F 70.6 °F 30.08 in ESE 2.0 mph 4.0 mph 87% 0.00 in 0.0 W/m2 +RA
04:49 74.6 °F 70.5 °F 30.08 in ESE 1.0 mph 5.0 mph 87% 0.00 in 0.0 W/m2 -RA
04:59 74.4 °F 70.3 °F 30.08 in Calm   4.0 mph 87% 0.00 in 0.0 W/m2 -RA
05:09 74.4 °F 70.6 °F 30.08 in SE 1.0 mph 4.0 mph 88% 0.05 in 0.0 W/m2 RA
05:19 74.2 °F 70.4 °F 30.08 in Calm   4.0 mph 88% 0.00 in 0.0 W/m2 BKN
05:29 74.0 °F 70.6 °F 30.08 in ESE 1.0 mph 4.0 mph 89% 0.00 in 0.0 W/m2 BKN
05:39 74.0 °F 70.6 °F 30.08 in Calm   5.0 mph 89% 0.00 in 0.0 W/m2 BKN
05:49 73.9 °F 70.8 °F 30.08 in Calm   5.0 mph 90% 0.00 in 0.0 W/m2 BKN
05:59 73.7 °F 70.6 °F 30.08 in ESE 1.0 mph 2.0 mph 90% 0.00 in 0.0 W/m2 BKN
06:09 73.5 °F 70.4 °F 30.09 in Calm   1.0 mph 90% 0.05 in 0.0 W/m2 RA
06:19 73.4 °F 70.6 °F 30.09 in Calm   2.0 mph 91% 0.00 in 0.0 W/m2 FEW
06:29 73.3 °F 70.5 °F 30.09 in Calm   2.0 mph 91% 0.00 in 0.0 W/m2 FEW
06:39 73.1 °F 70.3 °F 30.09 in Calm   1.0 mph 91% 0.00 in 0.0 W/m2 FEW
06:49 72.9 °F 70.1 °F 30.10 in Calm   1.0 mph 91% 0.00 in 0.0 W/m2 FEW
06:59 72.8 °F 70.3 °F 30.10 in Calm   1.0 mph 92% 0.00 in 0.0 W/m2 FEW
07:09 72.7 °F 70.2 °F 30.10 in Calm   1.0 mph 92% 0.00 in 0.0 W/m2 CLR
07:19 72.7 °F 70.2 °F 30.11 in Calm   1.0 mph 92% 0.00 in 0.0 W/m2 CLR
07:29 72.9 °F 70.4 °F 30.10 in SE 1.0 mph 4.0 mph 92% 0.00 in 0.0 W/m2 CLR
07:39 73.0 °F 70.5 °F 30.10 in Calm   1.0 mph 92% 0.00 in 0.0 W/m2 CLR
07:49 73.1 °F 70.6 °F 30.11 in SE 1.0 mph 4.0 mph 92% 0.00 in 0.0 W/m2 CLR
07:59 73.4 °F 70.9 °F 30.11 in ESE 1.0 mph 2.0 mph 92% 0.00 in 0.0 W/m2 CLR
08:09 73.6 °F 70.8 °F 30.10 in Calm   4.0 mph 91% 0.00 in 0.0 W/m2 CLR
08:19 73.9 °F 70.8 °F 30.10 in SE 2.0 mph 4.0 mph 90% 0.00 in 0.0 W/m2 CLR
08:29 74.4 °F 71.0 °F 30.10 in Calm   4.0 mph 89% 0.00 in 0.0 W/m2 CLR
08:39 75.3 °F 71.4 °F 30.10 in SSE 1.0 mph 6.0 mph 88% 0.00 in 0.0 W/m2 CLR
08:49 76.0 °F 71.5 °F 30.10 in ESE 3.0 mph 9.0 mph 86% 0.00 in 0.0 W/m2 CLR
08:59 77.3 °F 71.7 °F 30.10 in SSE 2.0 mph 7.0 mph 83% 0.00 in 0.0 W/m2 CLR
09:09 77.9 °F 71.2 °F 30.10 in SE 7.0 mph 14.0 mph 80% 0.00 in 0.0 W/m2 CLR
09:19 78.1 °F 71.1 °F 30.10 in SE 5.0 mph 12.0 mph 79% 0.00 in 0.0 W/m2 BKN
09:29 78.0 °F 70.6 °F 30.09 in SE 3.0 mph 12.0 mph 78% 0.00 in 0.0 W/m2 BKN
09:39 78.0 °F 70.6 °F 30.09 in South 5.0 mph 12.0 mph 78% 0.00 in 0.0 W/m2 BKN
09:49 77.8 °F 70.0 °F 30.09 in ESE 6.0 mph 15.0 mph 77% 0.00 in 0.0 W/m2 BKN
09:59 77.8 °F 70.4 °F 30.09 in SSE 6.0 mph 13.0 mph 78% 0.00 in 0.0 W/m2 BKN
10:09 78.0 °F 70.2 °F 30.09 in SE 5.0 mph 13.0 mph 77% 0.00 in 0.0 W/m2 BKN
10:19 78.5 °F 70.7 °F 30.10 in SE 1.0 mph 13.0 mph 77% 0.00 in 0.0 W/m2 SCT
10:29 79.2 °F 70.6 °F 30.10 in SSE 2.0 mph 6.0 mph 75% 0.00 in 0.0 W/m2 SCT
10:39 79.9 °F 70.4 °F 30.10 in SE 1.0 mph 7.0 mph 73% 0.00 in 0.0 W/m2 SCT
10:49 80.2 °F 71.1 °F 30.10 in SE 2.0 mph 8.0 mph 74% 0.00 in 0.0 W/m2 SCT
10:54 80.3 °F 70.4 °F 30.10 in SE 2.0 mph 8.0 mph 72% 0.00 in 0.0 W/m2 SCT
11:04 81.0 °F 70.7 °F 30.10 in SE 3.0 mph 10.0 mph 71% 0.00 in 0.0 W/m2 FEW
11:09 81.4 °F 70.2 °F 30.10 in SE 6.0 mph 15.0 mph 69% 0.00 in 0.0 W/m2 FEW
11:14 81.8 °F 70.6 °F 30.10 in SE 3.0 mph 9.0 mph 69% 0.00 in 0.0 W/m2 FEW
11:19 82.0 °F 70.0 °F 30.10 in SE 5.0 mph 10.0 mph 67% 0.00 in 0.0 W/m2 FEW
11:29 82.3 °F 70.2 °F 30.10 in ESE 2.0 mph 7.0 mph 67% 0.00 in 0.0 W/m2 FEW
11:39 84.3 °F 70.8 °F 30.10 in SE 3.0 mph 8.0 mph 64% 0.00 in 0.0 W/m2 FEW
11:44 84.9 °F 70.4 °F 30.10 in ESE 2.0 mph 8.0 mph 62% 0.00 in 0.0 W/m2 FEW
11:49 85.1 °F 69.7 °F 30.10 in ESE 5.0 mph 12.0 mph 60% 0.00 in 0.0 W/m2 FEW
11:59 85.3 °F 70.3 °F 30.10 in SE 3.0 mph 12.0 mph 61% 0.00 in 0.0 W/m2 FEW
12:09 85.2 °F 69.7 °F 30.10 in SE 6.0 mph 15.0 mph 60% 0.00 in 0.0 W/m2 SCT
12:19 84.7 °F 69.3 °F 30.11 in SSE 8.0 mph 14.0 mph 60% 0.00 in 0.0 W/m2 SCT
12:29 85.0 °F 68.6 °F 30.11 in South 8.0 mph 14.0 mph 58% 0.00 in 0.0 W/m2 SCT
12:39 85.4 °F 68.9 °F 30.10 in SSE 7.0 mph 12.0 mph 58% 0.00 in 0.0 W/m2 SCT
12:44 85.5 °F 68.6 °F 30.10 in SSE 5.0 mph 14.0 mph 57% 0.00 in 0.0 W/m2 SCT
12:49 85.7 °F 68.7 °F 30.10 in SE 5.0 mph 9.0 mph 57% 0.00 in 0.0 W/m2 SCT
12:59 86.5 °F 70.0 °F 30.09 in SSE 5.0 mph 10.0 mph 58% 0.00 in 0.0 W/m2 SCT
13:09 87.6 °F 70.0 °F 30.09 in ESE 5.0 mph 18.0 mph 56% 0.00 in 0.0 W/m2 CLR
13:19 86.0 °F 69.0 °F 30.09 in SE 6.0 mph 13.0 mph 57% 0.00 in 0.0 W/m2 CLR
13:29 85.6 °F 69.6 °F 30.08 in SSE 3.0 mph 8.0 mph 59% 0.00 in 0.0 W/m2 CLR
13:39 85.9 °F 69.9 °F 30.08 in ESE 5.0 mph 14.0 mph 59% 0.00 in 0.0 W/m2 CLR
13:49 85.8 °F 69.3 °F 30.08 in SE 7.0 mph 13.0 mph 58% 0.00 in 0.0 W/m2 CLR
13:59 86.3 °F 69.8 °F 30.07 in ESE 6.0 mph 12.0 mph 58% 0.00 in 0.0 W/m2 CLR
14:09 86.3 °F 69.7 °F 30.07 in ESE 6.0 mph 15.0 mph 58% 0.00 in 0.0 W/m2 FEW
14:19 86.3 °F 69.8 °F 30.07 in ESE 9.0 mph 15.0 mph 58% 0.00 in 0.0 W/m2 FEW
14:29 86.6 °F 70.6 °F 30.06 in East 10.0 mph 18.0 mph 59% 0.00 in 0.0 W/m2 FEW
14:39 86.2 °F 71.7 °F 30.05 in East 6.0 mph 14.0 mph 62% 0.00 in 0.0 W/m2 FEW
14:49 86.2 °F 71.2 °F 30.05 in East 8.0 mph 13.0 mph 61% 0.00 in 0.0 W/m2 FEW
14:59 86.6 °F 71.6 °F 30.05 in East 5.0 mph 13.0 mph 61% 0.00 in 0.0 W/m2 FEW
15:09 86.9 °F 71.3 °F 30.05 in ENE 5.0 mph 18.0 mph 60% 0.00 in 0.0 W/m2 SCT
15:19 86.6 °F 71.0 °F 30.05 in East 6.0 mph 17.0 mph 60% 0.00 in 0.0 W/m2 SCT
15:29 86.6 °F 71.5 °F 30.04 in ESE 2.0 mph 14.0 mph 61% 0.00 in 0.0 W/m2 SCT
15:39 86.4 °F 70.9 °F 30.04 in ESE 7.0 mph 13.0 mph 60% 0.00 in 0.0 W/m2 SCT
15:49 86.4 °F 71.4 °F 30.04 in ESE 5.0 mph 13.0 mph 61% 0.00 in 0.0 W/m2 SCT
15:59 86.0 °F 71.0 °F 30.03 in East 10.0 mph 18.0 mph 61% 0.00 in 0.0 W/m2 SCT
16:09 86.5 °F 71.5 °F 30.03 in ESE 6.0 mph 20.0 mph 61% 0.00 in 0.0 W/m2 BKN
16:19 87.2 °F 71.6 °F 30.03 in East 7.0 mph 16.0 mph 60% 0.00 in 0.0 W/m2 BKN
16:29 86.0 °F 71.0 °F 30.03 in ESE 7.0 mph 15.0 mph 61% 0.00 in 0.0 W/m2 BKN
16:39 85.1 °F 70.7 °F 30.03 in ENE 10.0 mph 15.0 mph 62% 0.00 in 0.0 W/m2 BKN
16:49 84.5 °F 71.0 °F 30.02 in ENE 8.0 mph 15.0 mph 64% 0.00 in 0.0 W/m2 BKN
16:59 85.4 °F 71.9 °F 30.03 in East 7.0 mph 16.0 mph 64% 0.00 in 0.0 W/m2 BKN
17:09 84.2 °F 71.2 °F 30.03 in East 7.0 mph 20.0 mph 65% 0.00 in 0.0 W/m2 BKN
17:19 83.4 °F 70.9 °F 30.03 in East 8.0 mph 15.0 mph 66% 0.00 in 0.0 W/m2 BKN
17:29 83.5 °F 71.0 °F 30.04 in East 6.0 mph 14.0 mph 66% 0.00 in 0.0 W/m2 BKN
17:39 84.5 °F 71.8 °F 30.03 in ESE 5.0 mph 12.0 mph 66% 0.00 in 0.0 W/m2 BKN
17:49 84.8 °F 71.7 °F 30.03 in East 5.0 mph 13.0 mph 65% 0.00 in 0.0 W/m2 BKN
17:59 84.7 °F 71.6 °F 30.03 in East 5.0 mph 14.0 mph 65% 0.00 in 0.0 W/m2 BKN
18:09 84.1 °F 71.1 °F 30.03 in ESE 5.0 mph 13.0 mph 65% 0.00 in 0.0 W/m2 BKN
18:19 83.7 °F 71.2 °F 30.03 in East 7.0 mph 15.0 mph 66% 0.00 in 0.0 W/m2 BKN
18:29 83.2 °F 71.1 °F 30.03 in East 7.0 mph 14.0 mph 67% 0.00 in 0.0 W/m2 BKN
18:39 82.8 °F 71.2 °F 30.04 in ESE 6.0 mph 17.0 mph 68% 0.00 in 0.0 W/m2 BKN
18:49 82.5 °F 71.3 °F 30.04 in East 6.0 mph 13.0 mph 69% 0.00 in 0.0 W/m2 BKN
18:59 82.4 °F 71.2 °F 30.04 in ESE 8.0 mph 15.0 mph 69% 0.00 in 0.0 W/m2 BKN
19:09 82.3 °F 71.5 °F 30.04 in ESE 8.0 mph 14.0 mph 70% 0.00 in 0.0 W/m2 SCT
19:19 82.1 °F 71.3 °F 30.04 in East 7.0 mph 15.0 mph 70% 0.00 in 0.0 W/m2 SCT
19:29 81.4 °F 71.1 °F 30.04 in East 6.0 mph 12.0 mph 71% 0.00 in 0.0 W/m2 SCT
19:39 80.7 °F 71.2 °F 30.04 in East 5.0 mph 15.0 mph 73% 0.00 in 0.0 W/m2 SCT
19:49 80.0 °F 70.9 °F 30.04 in East 7.0 mph 18.0 mph 74% 0.00 in 0.0 W/m2 SCT
19:59 79.6 °F 71.0 °F 30.05 in East 7.0 mph 12.0 mph 75% 0.00 in 0.0 W/m2 SCT
20:09 79.3 °F 71.0 °F 30.06 in East 7.0 mph 13.0 mph 76% 0.00 in 0.0 W/m2 CLR
20:19 78.8 °F 71.0 °F 30.06 in East 3.0 mph 15.0 mph 77% 0.00 in 0.0 W/m2 CLR
Lake Mary, FL, USA
Compliments of Weather Underground - 1.25 mb